sensor_id;sensor_type;location;lat;lon;timestamp;pressure;altitude;pressure_sealevel;temperature;humidity
21594;BME280;10959;51.328;7.322;2022-07-03T00:01:26;98962.00;;;21.98;51.99
21594;BME280;10959;51.328;7.322;2022-07-03T00:03:53;98958.53;;;21.96;51.60
21594;BME280;10959;51.328;7.322;2022-07-03T00:06:21;98951.59;;;21.91;51.67
21594;BME280;10959;51.328;7.322;2022-07-03T00:08:48;98953.66;;;21.89;52.12
21594;BME280;10959;51.328;7.322;2022-07-03T00:11:15;98957.69;;;21.85;52.01
21594;BME280;10959;51.328;7.322;2022-07-03T00:13:41;98946.28;;;21.80;52.44
21594;BME280;10959;51.328;7.322;2022-07-03T00:16:08;98947.56;;;21.76;52.22
21594;BME280;10959;51.328;7.322;2022-07-03T00:18:34;98941.66;;;21.71;52.67
21594;BME280;10959;51.328;7.322;2022-07-03T00:21:04;98937.47;;;21.67;53.01
21594;BME280;10959;51.328;7.322;2022-07-03T00:23:38;98945.84;;;21.55;53.10
21594;BME280;10959;51.328;7.322;2022-07-03T00:26:06;98931.84;;;21.58;53.08
21594;BME280;10959;51.328;7.322;2022-07-03T00:28:33;98939.38;;;21.56;53.20
21594;BME280;10959;51.328;7.322;2022-07-03T00:31:01;98942.50;;;21.52;53.59
21594;BME280;10959;51.328;7.322;2022-07-03T00:33:30;98949.88;;;21.51;53.48
21594;BME280;10959;51.328;7.322;2022-07-03T00:35:59;98942.91;;;21.47;54.23
21594;BME280;10959;51.328;7.322;2022-07-03T00:38:27;98945.09;;;21.44;53.07
21594;BME280;10959;51.328;7.322;2022-07-03T00:40:54;98941.47;;;21.43;53.62
21594;BME280;10959;51.328;7.322;2022-07-03T00:43:21;98937.56;;;21.36;53.82
21594;BME280;10959;51.328;7.322;2022-07-03T00:45:50;98945.78;;;21.36;53.90
21594;BME280;10959;51.328;7.322;2022-07-03T00:48:18;98941.59;;;21.32;54.42
21594;BME280;10959;51.328;7.322;2022-07-03T00:50:47;98938.84;;;21.32;53.71
21594;BME280;10959;51.328;7.322;2022-07-03T00:53:17;98939.56;;;21.24;54.04
21594;BME280;10959;51.328;7.322;2022-07-03T00:55:47;98941.44;;;21.23;54.08
21594;BME280;10959;51.328;7.322;2022-07-03T00:58:15;98935.22;;;21.21;54.09
21594;BME280;10959;51.328;7.322;2022-07-03T01:00:42;98940.00;;;21.19;53.94
21594;BME280;10959;51.328;7.322;2022-07-03T01:03:13;98941.72;;;21.11;53.79
21594;BME280;10959;51.328;7.322;2022-07-03T01:05:43;98940.81;;;21.10;53.90
21594;BME280;10959;51.328;7.322;2022-07-03T01:08:19;98948.31;;;21.08;53.91
21594;BME280;10959;51.328;7.322;2022-07-03T01:10:54;98941.69;;;21.01;54.33
21594;BME280;10959;51.328;7.322;2022-07-03T01:13:38;98945.63;;;20.77;54.53
21594;BME280;10959;51.328;7.322;2022-07-03T01:16:16;98932.97;;;20.86;54.96
21594;BME280;10959;51.328;7.322;2022-07-03T01:18:45;98940.22;;;20.97;54.64
21594;BME280;10959;51.328;7.322;2022-07-03T01:21:22;98937.31;;;20.88;54.58
21594;BME280;10959;51.328;7.322;2022-07-03T01:24:06;98929.66;;;20.82;55.33
21594;BME280;10959;51.328;7.322;2022-07-03T01:26:38;98928.09;;;20.89;55.01
21594;BME280;10959;51.328;7.322;2022-07-03T01:29:08;98927.09;;;20.91;54.76
21594;BME280;10959;51.328;7.322;2022-07-03T01:31:37;98917.69;;;20.83;54.46
21594;BME280;10959;51.328;7.322;2022-07-03T01:34:07;98918.25;;;20.77;55.01
21594;BME280;10959;51.328;7.322;2022-07-03T01:36:40;98915.56;;;20.66;54.73
21594;BME280;10959;51.328;7.322;2022-07-03T01:39:10;98915.47;;;20.67;55.11
21594;BME280;10959;51.328;7.322;2022-07-03T01:41:38;98918.31;;;20.66;55.09
21594;BME280;10959;51.328;7.322;2022-07-03T01:44:05;98919.34;;;20.65;55.89
21594;BME280;10959;51.328;7.322;2022-07-03T01:46:33;98915.84;;;20.63;55.62
21594;BME280;10959;51.328;7.322;2022-07-03T01:49:00;98914.13;;;20.62;55.36
21594;BME280;10959;51.328;7.322;2022-07-03T01:51:28;98912.66;;;20.58;55.74
21594;BME280;10959;51.328;7.322;2022-07-03T01:53:56;98902.28;;;20.51;55.81
21594;BME280;10959;51.328;7.322;2022-07-03T01:56:24;98916.09;;;20.50;55.65
21594;BME280;10959;51.328;7.322;2022-07-03T01:58:53;98919.81;;;20.49;55.51
21594;BME280;10959;51.328;7.322;2022-07-03T02:01:21;98912.03;;;20.44;55.40
21594;BME280;10959;51.328;7.322;2022-07-03T02:03:54;98907.38;;;20.35;55.93
21594;BME280;10959;51.328;7.322;2022-07-03T02:06:29;98909.66;;;20.30;56.26
21594;BME280;10959;51.328;7.322;2022-07-03T02:09:03;98909.09;;;20.36;56.32
21594;BME280;10959;51.328;7.322;2022-07-03T02:11:34;98901.91;;;20.35;56.51
21594;BME280;10959;51.328;7.322;2022-07-03T02:14:11;98906.72;;;20.22;56.41
21594;BME280;10959;51.328;7.322;2022-07-03T02:16:46;98900.97;;;20.25;56.47
21594;BME280;10959;51.328;7.322;2022-07-03T02:19:16;98906.50;;;20.34;56.57
21594;BME280;10959;51.328;7.322;2022-07-03T02:21:47;98900.72;;;20.28;56.22
21594;BME280;10959;51.328;7.322;2022-07-03T02:24:18;98898.72;;;20.30;56.28
21594;BME280;10959;51.328;7.322;2022-07-03T02:26:54;98892.63;;;20.16;56.66
21594;BME280;10959;51.328;7.322;2022-07-03T02:29:31;98891.66;;;20.06;56.58
21594;BME280;10959;51.328;7.322;2022-07-03T02:32:00;98898.06;;;20.16;56.14
21594;BME280;10959;51.328;7.322;2022-07-03T02:34:30;98889.41;;;20.11;56.43
21594;BME280;10959;51.328;7.322;2022-07-03T02:37:03;98891.66;;;20.06;56.86
21594;BME280;10959;51.328;7.322;2022-07-03T02:39:38;98895.69;;;20.02;56.82
21594;BME280;10959;51.328;7.322;2022-07-03T02:42:14;98889.88;;;19.95;56.68
21594;BME280;10959;51.328;7.322;2022-07-03T02:44:51;98894.03;;;19.90;56.95
21594;BME280;10959;51.328;7.322;2022-07-03T02:47:25;98889.53;;;19.89;56.78
21594;BME280;10959;51.328;7.322;2022-07-03T02:50:03;98886.84;;;19.77;57.09
21594;BME280;10959;51.328;7.322;2022-07-03T02:52:49;98891.09;;;19.70;57.45
21594;BME280;10959;51.328;7.322;2022-07-03T02:55:30;98889.97;;;19.73;57.45
21594;BME280;10959;51.328;7.322;2022-07-03T02:58:09;98895.19;;;19.76;57.21
21594;BME280;10959;51.328;7.322;2022-07-03T03:00:42;98897.78;;;19.77;57.19
21594;BME280;10959;51.328;7.322;2022-07-03T03:03:13;98897.53;;;19.80;57.31
21594;BME280;10959;51.328;7.322;2022-07-03T03:05:47;98897.78;;;19.77;57.12
21594;BME280;10959;51.328;7.322;2022-07-03T03:08:18;98906.84;;;19.78;57.36
21594;BME280;10959;51.328;7.322;2022-07-03T03:10:50;98900.63;;;19.76;57.34
21594;BME280;10959;51.328;7.322;2022-07-03T03:13:18;98899.78;;;19.75;57.59
21594;BME280;10959;51.328;7.322;2022-07-03T03:15:58;98899.03;;;19.52;58.12
21594;BME280;10959;51.328;7.322;2022-07-03T03:18:28;98899.31;;;19.70;58.15
21594;BME280;10959;51.328;7.322;2022-07-03T03:20:59;98898.59;;;19.68;57.45
21594;BME280;10959;51.328;7.322;2022-07-03T03:23:37;98895.91;;;19.57;57.85
21594;BME280;10959;51.328;7.322;2022-07-03T03:26:04;98898.84;;;19.65;57.63
21594;BME280;10959;51.328;7.322;2022-07-03T03:28:31;98897.09;;;19.64;57.84
21594;BME280;10959;51.328;7.322;2022-07-03T03:30:59;98897.09;;;19.64;57.94
21594;BME280;10959;51.328;7.322;2022-07-03T03:33:26;98902.97;;;19.59;57.32
21594;BME280;10959;51.328;7.322;2022-07-03T03:35:53;98906.84;;;19.57;57.65
21594;BME280;10959;51.328;7.322;2022-07-03T03:38:20;98896.91;;;19.56;57.78
21594;BME280;10959;51.328;7.322;2022-07-03T03:40:47;98906.84;;;19.57;57.58
21594;BME280;10959;51.328;7.322;2022-07-03T03:43:14;98900.75;;;19.53;57.69
21594;BME280;10959;51.328;7.322;2022-07-03T03:45:41;98909.97;;;19.52;57.70
21594;BME280;10959;51.328;7.322;2022-07-03T03:48:08;98911.66;;;19.53;57.42
21594;BME280;10959;51.328;7.322;2022-07-03T03:50:35;98905.63;;;19.49;58.01
21594;BME280;10959;51.328;7.322;2022-07-03T03:53:02;98901.91;;;19.50;58.32
21594;BME280;10959;51.328;7.322;2022-07-03T03:55:28;98902.63;;;19.52;58.19
21594;BME280;10959;51.328;7.322;2022-07-03T03:57:55;98907.81;;;19.56;58.21
21594;BME280;10959;51.328;7.322;2022-07-03T04:00:21;98900.63;;;19.55;58.17
21594;BME280;10959;51.328;7.322;2022-07-03T04:02:48;98905.09;;;19.56;58.46
21594;BME280;10959;51.328;7.322;2022-07-03T04:05:16;98909.81;;;19.54;58.32
21594;BME280;10959;51.328;7.322;2022-07-03T04:07:42;98908.56;;;19.58;58.49
21594;BME280;10959;51.328;7.322;2022-07-03T04:10:09;98917.50;;;19.60;58.39
21594;BME280;10959;51.328;7.322;2022-07-03T04:12:37;98908.31;;;19.61;58.45
21594;BME280;10959;51.328;7.322;2022-07-03T04:15:04;98909.28;;;19.60;58.30
21594;BME280;10959;51.328;7.322;2022-07-03T04:17:30;98908.31;;;19.61;58.19
21594;BME280;10959;51.328;7.322;2022-07-03T04:19:57;98911.50;;;19.66;58.35
21594;BME280;10959;51.328;7.322;2022-07-03T04:22:25;98915.25;;;19.65;58.17
21594;BME280;10959;51.328;7.322;2022-07-03T04:24:52;98905.44;;;19.62;58.13
21594;BME280;10959;51.328;7.322;2022-07-03T04:27:18;98908.75;;;19.66;58.22
21594;BME280;10959;51.328;7.322;2022-07-03T04:29:45;98912.09;;;19.69;58.30
21594;BME280;10959;51.328;7.322;2022-07-03T04:32:11;98914.44;;;19.74;58.31
21594;BME280;10959;51.328;7.322;2022-07-03T04:34:38;98920.41;;;19.79;58.24
21594;BME280;10959;51.328;7.322;2022-07-03T04:37:04;98923.88;;;19.81;58.46
21594;BME280;10959;51.328;7.322;2022-07-03T04:39:32;98922.59;;;19.85;58.33
21594;BME280;10959;51.328;7.322;2022-07-03T04:41:59;98931.53;;;19.88;58.52
21594;BME280;10959;51.328;7.322;2022-07-03T04:44:25;98924.09;;;19.90;58.86
21594;BME280;10959;51.328;7.322;2022-07-03T04:46:52;98918.34;;;19.93;58.77
21594;BME280;10959;51.328;7.322;2022-07-03T04:49:19;98927.31;;;19.95;58.48
21594;BME280;10959;51.328;7.322;2022-07-03T04:51:45;98923.28;;;19.99;58.56
21594;BME280;10959;51.328;7.322;2022-07-03T04:54:12;98926.75;;;20.01;58.57
21594;BME280;10959;51.328;7.322;2022-07-03T04:56:40;98930.22;;;20.03;58.84
21594;BME280;10959;51.328;7.322;2022-07-03T04:59:06;98926.47;;;20.04;58.82
21594;BME280;10959;51.328;7.322;2022-07-03T05:01:33;98916.75;;;20.11;58.96
21594;BME280;10959;51.328;7.322;2022-07-03T05:03:59;98927.13;;;20.17;59.18
21594;BME280;10959;51.328;7.322;2022-07-03T05:06:26;98919.41;;;20.23;59.24
21594;BME280;10959;51.328;7.322;2022-07-03T05:08:52;98927.81;;;20.31;58.89
21594;BME280;10959;51.328;7.322;2022-07-03T05:11:19;98930.97;;;20.36;59.10
21594;BME280;10959;51.328;7.322;2022-07-03T05:13:47;98928.44;;;20.44;58.89
21594;BME280;10959;51.328;7.322;2022-07-03T05:16:13;98925.91;;;20.52;58.38
21594;BME280;10959;51.328;7.322;2022-07-03T05:18:40;98927.34;;;20.57;58.59
21594;BME280;10959;51.328;7.322;2022-07-03T05:21:06;98930.81;;;20.59;58.52
21594;BME280;10959;51.328;7.322;2022-07-03T05:23:33;98937.16;;;20.59;58.26
21594;BME280;10959;51.328;7.322;2022-07-03T05:25:59;98929.81;;;20.60;58.87
21594;BME280;10959;51.328;7.322;2022-07-03T05:28:26;98926.81;;;20.63;58.91
21594;BME280;10959;51.328;7.322;2022-07-03T05:30:54;98926.53;;;20.66;58.80
21594;BME280;10959;51.328;7.322;2022-07-03T05:33:20;98930.31;;;20.75;58.63
21594;BME280;10959;51.328;7.322;2022-07-03T05:35:47;98941.19;;;20.86;58.74
21594;BME280;10959;51.328;7.322;2022-07-03T05:38:13;98938.47;;;20.96;58.46
21594;BME280;10959;51.328;7.322;2022-07-03T05:41:00;98934.16;;;21.03;57.68
21594;BME280;10959;51.328;7.322;2022-07-03T05:43:25;98946.63;;;21.17;58.09
21594;BME280;10959;51.328;7.322;2022-07-03T05:45:53;98936.69;;;21.26;57.46
21594;BME280;10959;51.328;7.322;2022-07-03T05:48:20;98940.00;;;21.39;57.44
21594;BME280;10959;51.328;7.322;2022-07-03T05:50:46;98942.06;;;21.47;57.52
21594;BME280;10959;51.328;7.322;2022-07-03T05:53:13;98945.84;;;21.55;57.56
21594;BME280;10959;51.328;7.322;2022-07-03T05:55:39;98941.22;;;21.66;56.91
21594;BME280;10959;51.328;7.322;2022-07-03T05:58:06;98947.31;;;21.79;56.50
21594;BME280;10959;51.328;7.322;2022-07-03T06:00:33;98960.56;;;21.84;56.27
21594;BME280;10959;51.328;7.322;2022-07-03T06:03:00;98955.34;;;21.90;55.87
21594;BME280;10959;51.328;7.322;2022-07-03T06:05:27;98962.88;;;21.88;56.17
21594;BME280;10959;51.328;7.322;2022-07-03T06:07:54;98957.69;;;21.85;56.19
21594;BME280;10959;51.328;7.322;2022-07-03T06:10:21;98956.25;;;21.81;55.62
21594;BME280;10959;51.328;7.322;2022-07-03T06:12:47;98963.75;;;21.79;55.79
21594;BME280;10959;51.328;7.322;2022-07-03T06:15:14;98967.19;;;21.81;55.71
21594;BME280;10959;51.328;7.322;2022-07-03T06:17:40;98968.34;;;21.98;55.51
21594;BME280;10959;51.328;7.322;2022-07-03T06:20:11;98969.06;;;22.10;55.03
21594;BME280;10959;51.328;7.322;2022-07-03T06:22:38;98975.84;;;22.25;54.96
21594;BME280;10959;51.328;7.322;2022-07-03T06:25:06;98971.66;;;22.41;55.03
21594;BME280;10959;51.328;7.322;2022-07-03T06:27:33;98970.59;;;22.52;55.30
21594;BME280;10959;51.328;7.322;2022-07-03T06:30:00;98966.53;;;22.66;54.72
21594;BME280;10959;51.328;7.322;2022-07-03T06:32:26;98976.00;;;22.81;54.97
21594;BME280;10959;51.328;7.322;2022-07-03T06:34:53;98973.38;;;22.89;54.50
21594;BME280;10959;51.328;7.322;2022-07-03T06:37:21;98974.19;;;23.00;54.12
21594;BME280;10959;51.328;7.322;2022-07-03T06:39:48;98978.75;;;23.09;53.67
21594;BME280;10959;51.328;7.322;2022-07-03T06:42:14;98974.88;;;23.11;53.63
21594;BME280;10959;51.328;7.322;2022-07-03T06:44:41;98985.34;;;23.26;53.71
21594;BME280;10959;51.328;7.322;2022-07-03T06:47:10;98979.81;;;23.36;53.41
21594;BME280;10959;51.328;7.322;2022-07-03T06:49:36;98987.00;;;23.46;53.18
21594;BME280;10959;51.328;7.322;2022-07-03T06:52:04;98983.13;;;23.57;53.20
21594;BME280;10959;51.328;7.322;2022-07-03T06:54:32;98979.53;;;23.75;52.96
21594;BME280;10959;51.328;7.322;2022-07-03T06:56:58;98987.56;;;23.86;52.76
21594;BME280;10959;51.328;7.322;2022-07-03T06:59:25;98993.56;;;24.00;52.90
21594;BME280;10959;51.328;7.322;2022-07-03T07:01:51;98994.03;;;24.13;52.10
21594;BME280;10959;51.328;7.322;2022-07-03T07:04:17;98993.38;;;24.19;51.61
21594;BME280;10959;51.328;7.322;2022-07-03T07:06:44;98997.94;;;24.28;51.39
21594;BME280;10959;51.328;7.322;2022-07-03T07:09:11;98993.53;;;24.36;51.75
21594;BME280;10959;51.328;7.322;2022-07-03T07:11:38;99000.50;;;24.48;51.49
21594;BME280;10959;51.328;7.322;2022-07-03T07:14:05;98993.56;;;24.62;50.77
21594;BME280;10959;51.328;7.322;2022-07-03T07:16:32;98998.84;;;24.55;49.19
21594;BME280;10959;51.328;7.322;2022-07-03T07:18:58;99009.53;;;24.58;50.04
21594;BME280;10959;51.328;7.322;2022-07-03T07:21:24;99001.38;;;24.66;49.06
21594;BME280;10959;51.328;7.322;2022-07-03T07:23:51;99001.38;;;24.66;48.96
21594;BME280;10959;51.328;7.322;2022-07-03T07:26:17;99005.13;;;24.65;49.33
21594;BME280;10959;51.328;7.322;2022-07-03T07:28:46;99000.78;;;24.81;49.76
21594;BME280;10959;51.328;7.322;2022-07-03T07:31:13;98998.09;;;24.97;49.66
21594;BME280;10959;51.328;7.322;2022-07-03T07:33:39;98998.19;;;25.14;49.54
21594;BME280;10959;51.328;7.322;2022-07-03T07:36:06;99003.75;;;25.30;49.59
21594;BME280;10959;51.328;7.322;2022-07-03T07:38:33;99003.88;;;25.47;49.07
21594;BME280;10959;51.328;7.322;2022-07-03T07:41:00;99000.78;;;25.58;49.39
21594;BME280;10959;51.328;7.322;2022-07-03T07:43:26;99007.72;;;25.79;48.53
21594;BME280;10959;51.328;7.322;2022-07-03T07:45:54;99002.25;;;25.95;48.75
21594;BME280;10959;51.328;7.322;2022-07-03T07:48:20;98991.94;;;26.06;48.36
21594;BME280;10959;51.328;7.322;2022-07-03T07:50:47;98990.22;;;26.21;47.93
21594;BME280;10959;51.328;7.322;2022-07-03T07:53:14;98986.78;;;26.35;47.99
21594;BME280;10959;51.328;7.322;2022-07-03T07:55:41;98991.59;;;26.50;46.08
21594;BME280;10959;51.328;7.322;2022-07-03T07:58:08;98992.25;;;26.52;45.87
21594;BME280;10959;51.328;7.322;2022-07-03T08:00:34;98991.59;;;26.42;45.55
21594;BME280;10959;51.328;7.322;2022-07-03T08:03:03;98992.97;;;26.46;46.77
21594;BME280;10959;51.328;7.322;2022-07-03T08:05:47;98986.38;;;26.55;46.03
21594;BME280;10959;51.328;7.322;2022-07-03T08:08:14;98996.78;;;26.69;45.73
21594;BME280;10959;51.328;7.322;2022-07-03T08:10:42;98992.22;;;26.85;46.27
21594;BME280;10959;51.328;7.322;2022-07-03T08:13:11;99003.75;;;27.05;45.57
21594;BME280;10959;51.328;7.322;2022-07-03T08:15:38;98992.84;;;27.12;45.33
21594;BME280;10959;51.328;7.322;2022-07-03T08:18:06;98996.97;;;27.24;45.55
21594;BME280;10959;51.328;7.322;2022-07-03T08:20:33;98990.53;;;27.40;45.57
21594;BME280;10959;51.328;7.322;2022-07-03T08:23:01;98994.56;;;27.61;45.78
21594;BME280;10959;51.328;7.322;2022-07-03T08:25:27;98990.88;;;27.76;45.40
21594;BME280;10959;51.328;7.322;2022-07-03T08:27:55;98987.66;;;27.88;45.09
21594;BME280;10959;51.328;7.322;2022-07-03T08:30:22;98990.38;;;27.96;44.84
21594;BME280;10959;51.328;7.322;2022-07-03T08:32:50;98987.69;;;28.11;45.04
21594;BME280;10959;51.328;7.322;2022-07-03T08:35:18;98990.88;;;28.23;44.85
21594;BME280;10959;51.328;7.322;2022-07-03T08:37:45;98985.19;;;28.39;44.12
21594;BME280;10959;51.328;7.322;2022-07-03T08:40:13;98991.75;;;28.47;43.42
21594;BME280;10959;51.328;7.322;2022-07-03T08:42:44;98999.13;;;28.31;41.85
21594;BME280;10959;51.328;7.322;2022-07-03T08:45:13;98987.13;;;28.39;41.19
21594;BME280;10959;51.328;7.322;2022-07-03T08:47:40;98987.44;;;28.44;43.40
21594;BME280;10959;51.328;7.322;2022-07-03T08:50:08;98997.69;;;28.58;43.53
21594;BME280;10959;51.328;7.322;2022-07-03T08:52:37;99003.25;;;28.73;43.19
21594;BME280;10959;51.328;7.322;2022-07-03T08:55:05;98998.13;;;28.85;42.89
21594;BME280;10959;51.328;7.322;2022-07-03T08:57:32;98990.47;;;29.02;43.21
21594;BME280;10959;51.328;7.322;2022-07-03T09:00:01;98995.44;;;29.22;42.42
21594;BME280;10959;51.328;7.322;2022-07-03T09:02:30;98997.78;;;29.33;42.35
21594;BME280;10959;51.328;7.322;2022-07-03T09:04:58;98997.94;;;29.46;42.53
21594;BME280;10959;51.328;7.322;2022-07-03T09:07:26;98997.38;;;29.51;40.61
21594;BME280;10959;51.328;7.322;2022-07-03T09:09:54;98997.44;;;29.58;41.23
21594;BME280;10959;51.328;7.322;2022-07-03T09:12:21;98998.66;;;29.70;41.94
21594;BME280;10959;51.328;7.322;2022-07-03T09:14:48;98995.03;;;29.85;41.15
21594;BME280;10959;51.328;7.322;2022-07-03T09:17:15;98995.56;;;29.95;41.31
21594;BME280;10959;51.328;7.322;2022-07-03T09:19:43;98993.69;;;30.02;41.27
21594;BME280;10959;51.328;7.322;2022-07-03T09:22:21;98997.28;;;29.96;41.57
21594;BME280;10959;51.328;7.322;2022-07-03T09:24:49;99003.13;;;30.23;40.72
21594;BME280;10959;51.328;7.322;2022-07-03T09:27:18;99001.06;;;30.31;41.44
21594;BME280;10959;51.328;7.322;2022-07-03T09:29:57;99000.59;;;30.28;41.57
21594;BME280;10959;51.328;7.322;2022-07-03T09:32:25;99002.19;;;30.59;41.05
21594;BME280;10959;51.328;7.322;2022-07-03T09:35:15;99010.22;;;30.47;41.33
21594;BME280;10959;51.328;7.322;2022-07-03T09:37:47;99010.41;;;30.74;41.23
21594;BME280;10959;51.328;7.322;2022-07-03T09:40:14;98999.84;;;30.91;39.47
21594;BME280;10959;51.328;7.322;2022-07-03T09:42:56;99001.28;;;30.80;40.03
21594;BME280;10959;51.328;7.322;2022-07-03T09:45:23;99007.50;;;31.10;40.57
21594;BME280;10959;51.328;7.322;2022-07-03T09:47:50;99002.84;;;31.17;39.61
21594;BME280;10959;51.328;7.322;2022-07-03T09:50:16;99007.56;;;31.24;39.32
21594;BME280;10959;51.328;7.322;2022-07-03T09:52:44;99008.66;;;31.29;39.47
21594;BME280;10959;51.328;7.322;2022-07-03T09:55:16;99005.69;;;31.31;39.50
21594;BME280;10959;51.328;7.322;2022-07-03T09:57:47;99006.56;;;31.38;39.29
21594;BME280;10959;51.328;7.322;2022-07-03T10:00:25;99005.19;;;31.21;37.78
21594;BME280;10959;51.328;7.322;2022-07-03T10:02:57;99010.03;;;31.05;39.57
21594;BME280;10959;51.328;7.322;2022-07-03T10:05:26;99009.06;;;31.19;38.18
21594;BME280;10959;51.328;7.322;2022-07-03T10:07:54;99009.75;;;31.00;36.59
21594;BME280;10959;51.328;7.322;2022-07-03T10:10:23;99005.59;;;30.82;36.33
21594;BME280;10959;51.328;7.322;2022-07-03T10:12:55;99012.19;;;30.81;37.98
21594;BME280;10959;51.328;7.322;2022-07-03T10:15:24;98997.19;;;31.04;38.13
21594;BME280;10959;51.328;7.322;2022-07-03T10:17:52;99002.69;;;31.26;37.96
21594;BME280;10959;51.328;7.322;2022-07-03T10:20:23;99002.91;;;31.31;38.15
21594;BME280;10959;51.328;7.322;2022-07-03T10:22:51;99004.72;;;31.45;39.80
21594;BME280;10959;51.328;7.322;2022-07-03T10:25:18;99007.81;;;31.64;38.26
21594;BME280;10959;51.328;7.322;2022-07-03T10:27:45;99006.22;;;31.54;37.27
21594;BME280;10959;51.328;7.322;2022-07-03T10:30:15;99009.75;;;31.70;38.39
21594;BME280;10959;51.328;7.322;2022-07-03T10:32:44;99000.34;;;31.78;37.93
21594;BME280;10959;51.328;7.322;2022-07-03T10:35:13;99003.41;;;31.90;35.88
21594;BME280;10959;51.328;7.322;2022-07-03T10:37:49;99015.59;;;31.88;37.81
21594;BME280;10959;51.328;7.322;2022-07-03T10:40:24;99021.00;;;31.97;38.43
21594;BME280;10959;51.328;7.322;2022-07-03T10:43:15;99010.72;;;32.11;38.01
21594;BME280;10959;51.328;7.322;2022-07-03T10:46:11;99003.84;;;32.07;36.57
21594;BME280;10959;51.328;7.322;2022-07-03T10:49:00;99011.38;;;32.06;37.59
21594;BME280;10959;51.328;7.322;2022-07-03T10:51:28;99005.63;;;32.14;35.63
21594;BME280;10959;51.328;7.322;2022-07-03T10:54:15;99007.22;;;31.82;35.72
21594;BME280;10959;51.328;7.322;2022-07-03T10:59:56;99005.94;;;31.84;36.98
21594;BME280;10959;51.328;7.322;2022-07-03T11:02:27;99011.19;;;32.14;37.55
21594;BME280;10959;51.328;7.322;2022-07-03T11:05:06;99005.00;;;32.26;36.34
21594;BME280;10959;51.328;7.322;2022-07-03T11:07:35;98998.34;;;32.27;33.23
21594;BME280;10959;51.328;7.322;2022-07-03T11:10:33;99013.03;;;31.94;35.50
21594;BME280;10959;51.328;7.322;2022-07-03T11:13:02;98999.94;;;31.74;35.76
21594;BME280;10959;51.328;7.322;2022-07-03T11:15:30;99002.34;;;31.97;37.14
21594;BME280;10959;51.328;7.322;2022-07-03T11:18:14;99000.84;;;32.01;37.65
21594;BME280;10959;51.328;7.322;2022-07-03T11:21:12;99003.81;;;31.86;37.92
21594;BME280;10959;51.328;7.322;2022-07-03T11:23:55;98994.34;;;31.74;37.23
21594;BME280;10959;51.328;7.322;2022-07-03T11:26:26;98996.03;;;31.62;36.03
21594;BME280;10959;51.328;7.322;2022-07-03T11:28:52;98997.84;;;31.41;36.18
21594;BME280;10959;51.328;7.322;2022-07-03T11:31:21;98988.97;;;31.31;38.01
21594;BME280;10959;51.328;7.322;2022-07-03T11:33:57;98996.34;;;31.45;37.53
21594;BME280;10959;51.328;7.322;2022-07-03T11:36:24;98995.69;;;31.92;37.66
21594;BME280;10959;51.328;7.322;2022-07-03T11:39:03;98996.16;;;32.09;36.77
21594;BME280;10959;51.328;7.322;2022-07-03T11:41:42;99001.38;;;32.32;37.23
21594;BME280;10959;51.328;7.322;2022-07-03T11:44:10;98998.38;;;32.53;35.81
21594;BME280;10959;51.328;7.322;2022-07-03T11:46:40;98998.81;;;32.37;36.34
21594;BME280;10959;51.328;7.322;2022-07-03T11:49:10;99002.66;;;32.36;35.26
21594;BME280;10959;51.328;7.322;2022-07-03T11:51:38;98999.66;;;32.44;36.30
21594;BME280;10959;51.328;7.322;2022-07-03T11:54:05;99003.06;;;32.19;36.09
21594;BME280;10959;51.328;7.322;2022-07-03T11:56:33;98994.94;;;32.38;35.07
21594;BME280;10959;51.328;7.322;2022-07-03T11:59:02;98997.91;;;32.16;34.20
21594;BME280;10959;51.328;7.322;2022-07-03T12:01:31;99000.84;;;32.01;35.62
21594;BME280;10959;51.328;7.322;2022-07-03T12:04:06;99001.22;;;31.85;35.45
21594;BME280;10959;51.328;7.322;2022-07-03T12:06:35;98992.75;;;32.13;35.79
21594;BME280;10959;51.328;7.322;2022-07-03T12:09:11;98993.63;;;32.20;35.79
21594;BME280;10959;51.328;7.322;2022-07-03T12:11:37;98994.19;;;31.96;32.96
21594;BME280;10959;51.328;7.322;2022-07-03T12:14:04;98990.53;;;31.88;34.68
21594;BME280;10959;51.328;7.322;2022-07-03T12:16:32;98995.25;;;31.95;34.56
21594;BME280;10959;51.328;7.322;2022-07-03T12:19:03;98979.22;;;32.03;35.04
21594;BME280;10959;51.328;7.322;2022-07-03T12:21:37;98984.81;;;32.10;32.80
21594;BME280;10959;51.328;7.322;2022-07-03T12:24:09;98979.50;;;32.15;35.19
21594;BME280;10959;51.328;7.322;2022-07-03T12:26:36;98977.31;;;32.04;35.47
21594;BME280;10959;51.328;7.322;2022-07-03T12:29:05;98985.41;;;31.85;34.16
21594;BME280;10959;51.328;7.322;2022-07-03T12:31:33;98971.63;;;31.64;32.29
21594;BME280;10959;51.328;7.322;2022-07-03T12:34:00;98969.91;;;31.63;35.81
21594;BME280;10959;51.328;7.322;2022-07-03T12:36:28;98971.63;;;31.64;35.19
21594;BME280;10959;51.328;7.322;2022-07-03T12:38:57;98975.06;;;31.73;34.70
21594;BME280;10959;51.328;7.322;2022-07-03T12:41:25;98971.22;;;31.80;35.81
21594;BME280;10959;51.328;7.322;2022-07-03T12:43:53;98971.81;;;31.62;34.29
21594;BME280;10959;51.328;7.322;2022-07-03T12:46:22;98960.47;;;31.15;34.01
21594;BME280;10959;51.328;7.322;2022-07-03T12:48:50;98959.22;;;30.96;34.31
21594;BME280;10959;51.328;7.322;2022-07-03T12:51:17;98962.63;;;30.92;34.46
21594;BME280;10959;51.328;7.322;2022-07-03T12:54:03;98960.63;;;30.50;34.63
21594;BME280;10959;51.328;7.322;2022-07-03T12:56:30;98957.66;;;30.30;34.81
21594;BME280;10959;51.328;7.322;2022-07-03T12:58:56;98968.06;;;30.22;34.99
21594;BME280;10959;51.328;7.322;2022-07-03T13:01:40;98952.44;;;29.99;34.78
21594;BME280;10959;51.328;7.322;2022-07-03T13:04:07;98953.66;;;29.90;35.23
21594;BME280;10959;51.328;7.322;2022-07-03T13:06:35;98960.13;;;29.97;35.43
21594;BME280;10959;51.328;7.322;2022-07-03T13:09:04;98952.19;;;30.15;35.97
21594;BME280;10959;51.328;7.322;2022-07-03T13:11:33;98954.44;;;30.27;36.26
21594;BME280;10959;51.328;7.322;2022-07-03T13:14:03;98942.94;;;29.87;35.17
21594;BME280;10959;51.328;7.322;2022-07-03T13:16:36;98948.31;;;29.73;36.64